sensor_id;sensor_type;location;lat;lon;timestamp;P1;durP1;ratioP1;P2;durP2;ratioP2
28653;SDS011;24320;56.980;24.336;2023-08-21T00:01:47;18.05;;;11.40;;
28653;SDS011;24320;56.980;24.336;2023-08-21T00:04:14;22.67;;;12.88;;
28653;SDS011;24320;56.980;24.336;2023-08-21T00:06:41;22.42;;;12.05;;
28653;SDS011;24320;56.980;24.336;2023-08-21T00:09:07;22.73;;;11.57;;
28653;SDS011;24320;56.980;24.336;2023-08-21T00:11:35;24.80;;;13.73;;
28653;SDS011;24320;56.980;24.336;2023-08-21T00:14:02;20.15;;;11.85;;
28653;SDS011;24320;56.980;24.336;2023-08-21T00:16:29;22.30;;;12.13;;
28653;SDS011;24320;56.980;24.336;2023-08-21T00:18:56;22.52;;;12.65;;
28653;SDS011;24320;56.980;24.336;2023-08-21T00:21:23;20.83;;;12.50;;
28653;SDS011;24320;56.980;24.336;2023-08-21T00:23:50;24.80;;;15.00;;
28653;SDS011;24320;56.980;24.336;2023-08-21T00:26:17;26.42;;;15.02;;
28653;SDS011;24320;56.980;24.336;2023-08-21T00:28:44;27.50;;;15.18;;
28653;SDS011;24320;56.980;24.336;2023-08-21T00:31:11;22.33;;;13.88;;
28653;SDS011;24320;56.980;24.336;2023-08-21T00:33:39;24.65;;;13.32;;
28653;SDS011;24320;56.980;24.336;2023-08-21T00:36:06;20.45;;;12.07;;
28653;SDS011;24320;56.980;24.336;2023-08-21T00:38:33;19.60;;;11.25;;
28653;SDS011;24320;56.980;24.336;2023-08-21T00:41:00;22.40;;;12.13;;
28653;SDS011;24320;56.980;24.336;2023-08-21T00:43:27;21.67;;;13.07;;
28653;SDS011;24320;56.980;24.336;2023-08-21T00:45:54;22.00;;;12.65;;
28653;SDS011;24320;56.980;24.336;2023-08-21T00:48:22;24.02;;;12.18;;
28653;SDS011;24320;56.980;24.336;2023-08-21T00:50:49;23.77;;;11.82;;
28653;SDS011;24320;56.980;24.336;2023-08-21T00:53:16;20.25;;;12.00;;
28653;SDS011;24320;56.980;24.336;2023-08-21T00:55:44;16.95;;;10.20;;
28653;SDS011;24320;56.980;24.336;2023-08-21T00:58:11;18.35;;;10.57;;
28653;SDS011;24320;56.980;24.336;2023-08-21T01:00:40;21.17;;;11.48;;
28653;SDS011;24320;56.980;24.336;2023-08-21T01:03:08;17.48;;;10.80;;
28653;SDS011;24320;56.980;24.336;2023-08-21T01:05:35;16.70;;;10.40;;
28653;SDS011;24320;56.980;24.336;2023-08-21T01:08:03;17.95;;;11.27;;
28653;SDS011;24320;56.980;24.336;2023-08-21T01:10:39;17.30;;;10.73;;
28653;SDS011;24320;56.980;24.336;2023-08-21T01:15:54;17.33;;;10.68;;
28653;SDS011;24320;56.980;24.336;2023-08-21T01:18:22;18.48;;;10.77;;
28653;SDS011;24320;56.980;24.336;2023-08-21T01:20:50;17.52;;;10.35;;
28653;SDS011;24320;56.980;24.336;2023-08-21T01:23:34;16.35;;;10.15;;
28653;SDS011;24320;56.980;24.336;2023-08-21T01:26:01;15.65;;;9.73;;
28653;SDS011;24320;56.980;24.336;2023-08-21T01:28:29;15.45;;;10.38;;
28653;SDS011;24320;56.980;24.336;2023-08-21T01:31:07;20.45;;;10.07;;
28653;SDS011;24320;56.980;24.336;2023-08-21T01:33:37;14.55;;;8.75;;
28653;SDS011;24320;56.980;24.336;2023-08-21T01:36:14;16.70;;;9.00;;
28653;SDS011;24320;56.980;24.336;2023-08-21T01:38:41;14.82;;;9.00;;
28653;SDS011;24320;56.980;24.336;2023-08-21T01:41:09;15.95;;;9.57;;
28653;SDS011;24320;56.980;24.336;2023-08-21T01:43:36;13.15;;;8.63;;
28653;SDS011;24320;56.980;24.336;2023-08-21T01:46:03;15.73;;;9.32;;
28653;SDS011;24320;56.980;24.336;2023-08-21T01:48:30;15.20;;;8.43;;
28653;SDS011;24320;56.980;24.336;2023-08-21T01:50:57;13.60;;;8.98;;
28653;SDS011;24320;56.980;24.336;2023-08-21T01:53:27;12.07;;;8.20;;
28653;SDS011;24320;56.980;24.336;2023-08-21T01:55:55;15.20;;;9.43;;
28653;SDS011;24320;56.980;24.336;2023-08-21T01:58:22;13.85;;;9.23;;
28653;SDS011;24320;56.980;24.336;2023-08-21T02:00:49;13.98;;;9.10;;
28653;SDS011;24320;56.980;24.336;2023-08-21T02:03:16;13.95;;;8.65;;
28653;SDS011;24320;56.980;24.336;2023-08-21T02:05:43;13.50;;;8.38;;
28653;SDS011;24320;56.980;24.336;2023-08-21T02:08:13;15.85;;;8.95;;
28653;SDS011;24320;56.980;24.336;2023-08-21T02:10:50;14.30;;;9.40;;
28653;SDS011;24320;56.980;24.336;2023-08-21T02:13:18;15.88;;;9.38;;
28653;SDS011;24320;56.980;24.336;2023-08-21T02:15:46;14.30;;;8.93;;
28653;SDS011;24320;56.980;24.336;2023-08-21T02:18:13;14.80;;;8.90;;
28653;SDS011;24320;56.980;24.336;2023-08-21T02:20:41;17.13;;;8.93;;
28653;SDS011;24320;56.980;24.336;2023-08-21T02:23:08;17.27;;;9.43;;
28653;SDS011;24320;56.980;24.336;2023-08-21T02:25:35;14.25;;;9.32;;
28653;SDS011;24320;56.980;24.336;2023-08-21T02:28:02;14.77;;;9.00;;
28653;SDS011;24320;56.980;24.336;2023-08-21T02:30:30;13.40;;;9.13;;
28653;SDS011;24320;56.980;24.336;2023-08-21T02:32:57;13.55;;;9.15;;
28653;SDS011;24320;56.980;24.336;2023-08-21T02:35:24;14.60;;;9.18;;
28653;SDS011;24320;56.980;24.336;2023-08-21T02:37:51;17.05;;;9.60;;
28653;SDS011;24320;56.980;24.336;2023-08-21T02:40:18;14.50;;;8.82;;
28653;SDS011;24320;56.980;24.336;2023-08-21T02:42:45;13.70;;;8.57;;
28653;SDS011;24320;56.980;24.336;2023-08-21T02:45:12;14.80;;;9.32;;
28653;SDS011;24320;56.980;24.336;2023-08-21T02:47:40;12.93;;;8.77;;
28653;SDS011;24320;56.980;24.336;2023-08-21T02:50:08;15.90;;;10.02;;
28653;SDS011;24320;56.980;24.336;2023-08-21T02:52:36;20.15;;;11.82;;
28653;SDS011;24320;56.980;24.336;2023-08-21T02:55:04;18.45;;;12.07;;
28653;SDS011;24320;56.980;24.336;2023-08-21T02:57:32;23.25;;;13.95;;
28653;SDS011;24320;56.980;24.336;2023-08-21T02:59:59;22.55;;;14.60;;
28653;SDS011;24320;56.980;24.336;2023-08-21T03:02:26;21.23;;;13.23;;
28653;SDS011;24320;56.980;24.336;2023-08-21T03:04:53;23.48;;;14.48;;
28653;SDS011;24320;56.980;24.336;2023-08-21T03:07:20;25.73;;;14.20;;
28653;SDS011;24320;56.980;24.336;2023-08-21T03:09:48;21.40;;;12.35;;
28653;SDS011;24320;56.980;24.336;2023-08-21T03:12:15;20.48;;;12.85;;
28653;SDS011;24320;56.980;24.336;2023-08-21T03:14:42;20.63;;;11.68;;
28653;SDS011;24320;56.980;24.336;2023-08-21T03:17:09;18.13;;;12.15;;
28653;SDS011;24320;56.980;24.336;2023-08-21T03:19:36;18.30;;;11.90;;
28653;SDS011;24320;56.980;24.336;2023-08-21T03:22:03;18.05;;;10.40;;
28653;SDS011;24320;56.980;24.336;2023-08-21T03:24:31;15.23;;;10.57;;
28653;SDS011;24320;56.980;24.336;2023-08-21T03:26:58;17.02;;;10.43;;
28653;SDS011;24320;56.980;24.336;2023-08-21T03:29:25;15.93;;;10.23;;
28653;SDS011;24320;56.980;24.336;2023-08-21T03:31:52;17.80;;;10.27;;
28653;SDS011;24320;56.980;24.336;2023-08-21T03:34:23;13.93;;;9.02;;
28653;SDS011;24320;56.980;24.336;2023-08-21T03:36:51;19.55;;;10.07;;
28653;SDS011;24320;56.980;24.336;2023-08-21T03:39:18;14.25;;;9.55;;
28653;SDS011;24320;56.980;24.336;2023-08-21T03:41:45;15.68;;;10.45;;
28653;SDS011;24320;56.980;24.336;2023-08-21T03:44:12;20.58;;;12.05;;
28653;SDS011;24320;56.980;24.336;2023-08-21T03:46:39;18.42;;;11.35;;
28653;SDS011;24320;56.980;24.336;2023-08-21T03:49:06;17.83;;;11.05;;
28653;SDS011;24320;56.980;24.336;2023-08-21T03:51:33;20.92;;;11.48;;
28653;SDS011;24320;56.980;24.336;2023-08-21T03:54:00;16.25;;;10.57;;
28653;SDS011;24320;56.980;24.336;2023-08-21T03:56:27;18.88;;;11.18;;
28653;SDS011;24320;56.980;24.336;2023-08-21T03:58:54;24.02;;;11.73;;
28653;SDS011;24320;56.980;24.336;2023-08-21T04:01:22;18.20;;;11.82;;
28653;SDS011;24320;56.980;24.336;2023-08-21T04:03:49;18.63;;;11.90;;
28653;SDS011;24320;56.980;24.336;2023-08-21T04:06:16;18.25;;;10.82;;
28653;SDS011;24320;56.980;24.336;2023-08-21T04:08:43;19.02;;;12.13;;
28653;SDS011;24320;56.980;24.336;2023-08-21T04:11:10;17.08;;;11.30;;
28653;SDS011;24320;56.980;24.336;2023-08-21T04:13:37;22.40;;;11.43;;
28653;SDS011;24320;56.980;24.336;2023-08-21T04:16:04;18.38;;;11.30;;
28653;SDS011;24320;56.980;24.336;2023-08-21T04:18:31;16.50;;;10.75;;
28653;SDS011;24320;56.980;24.336;2023-08-21T04:21:07;19.67;;;10.77;;
28653;SDS011;24320;56.980;24.336;2023-08-21T04:23:35;19.73;;;10.98;;
28653;SDS011;24320;56.980;24.336;2023-08-21T04:26:03;18.20;;;10.82;;
28653;SDS011;24320;56.980;24.336;2023-08-21T04:28:31;21.92;;;11.93;;
28653;SDS011;24320;56.980;24.336;2023-08-21T04:30:58;18.58;;;11.20;;
28653;SDS011;24320;56.980;24.336;2023-08-21T04:33:27;17.45;;;10.80;;
28653;SDS011;24320;56.980;24.336;2023-08-21T04:35:58;17.48;;;10.85;;
28653;SDS011;24320;56.980;24.336;2023-08-21T04:38:25;19.60;;;11.35;;
28653;SDS011;24320;56.980;24.336;2023-08-21T04:40:52;16.42;;;10.88;;
28653;SDS011;24320;56.980;24.336;2023-08-21T04:43:19;18.27;;;11.05;;
28653;SDS011;24320;56.980;24.336;2023-08-21T04:45:49;20.80;;;11.85;;
28653;SDS011;24320;56.980;24.336;2023-08-21T04:48:17;19.33;;;12.07;;
28653;SDS011;24320;56.980;24.336;2023-08-21T04:50:45;22.20;;;11.98;;
28653;SDS011;24320;56.980;24.336;2023-08-21T04:53:12;22.17;;;12.10;;
28653;SDS011;24320;56.980;24.336;2023-08-21T04:55:39;22.20;;;12.13;;
28653;SDS011;24320;56.980;24.336;2023-08-21T04:58:07;18.75;;;11.25;;
28653;SDS011;24320;56.980;24.336;2023-08-21T05:00:35;21.83;;;11.23;;
28653;SDS011;24320;56.980;24.336;2023-08-21T05:03:03;22.30;;;11.18;;
28653;SDS011;24320;56.980;24.336;2023-08-21T05:05:30;20.83;;;11.30;;
28653;SDS011;24320;56.980;24.336;2023-08-21T05:07:57;25.05;;;11.35;;
28653;SDS011;24320;56.980;24.336;2023-08-21T05:10:24;22.23;;;11.82;;
28653;SDS011;24320;56.980;24.336;2023-08-21T05:12:51;22.83;;;12.18;;
28653;SDS011;24320;56.980;24.336;2023-08-21T05:15:18;21.48;;;11.75;;
28653;SDS011;24320;56.980;24.336;2023-08-21T05:17:45;20.80;;;11.18;;
28653;SDS011;24320;56.980;24.336;2023-08-21T05:20:12;23.65;;;10.95;;
28653;SDS011;24320;56.980;24.336;2023-08-21T05:22:41;22.95;;;11.90;;
28653;SDS011;24320;56.980;24.336;2023-08-21T05:25:08;19.48;;;11.52;;
28653;SDS011;24320;56.980;24.336;2023-08-21T05:27:36;22.30;;;11.93;;
28653;SDS011;24320;56.980;24.336;2023-08-21T05:30:03;20.02;;;11.60;;
28653;SDS011;24320;56.980;24.336;2023-08-21T05:32:31;18.23;;;11.02;;
28653;SDS011;24320;56.980;24.336;2023-08-21T05:34:58;22.38;;;11.57;;
28653;SDS011;24320;56.980;24.336;2023-08-21T05:37:25;20.92;;;10.95;;
28653;SDS011;24320;56.980;24.336;2023-08-21T05:39:53;21.25;;;10.75;;
28653;SDS011;24320;56.980;24.336;2023-08-21T05:42:20;18.67;;;11.13;;
28653;SDS011;24320;56.980;24.336;2023-08-21T05:44:47;23.88;;;12.05;;
28653;SDS011;24320;56.980;24.336;2023-08-21T05:47:14;20.63;;;12.00;;
28653;SDS011;24320;56.980;24.336;2023-08-21T05:49:41;24.40;;;11.05;;
28653;SDS011;24320;56.980;24.336;2023-08-21T05:52:09;19.30;;;10.38;;
28653;SDS011;24320;56.980;24.336;2023-08-21T05:54:36;17.83;;;10.32;;
28653;SDS011;24320;56.980;24.336;2023-08-21T05:57:04;22.08;;;11.55;;
28653;SDS011;24320;56.980;24.336;2023-08-21T05:59:31;20.55;;;11.07;;
28653;SDS011;24320;56.980;24.336;2023-08-21T06:01:59;20.15;;;11.80;;
28653;SDS011;24320;56.980;24.336;2023-08-21T06:04:26;18.75;;;11.73;;
28653;SDS011;24320;56.980;24.336;2023-08-21T06:06:54;20.50;;;11.85;;
28653;SDS011;24320;56.980;24.336;2023-08-21T06:09:21;17.15;;;10.30;;
28653;SDS011;24320;56.980;24.336;2023-08-21T06:11:48;25.60;;;11.13;;
28653;SDS011;24320;56.980;24.336;2023-08-21T06:14:15;19.85;;;10.95;;
28653;SDS011;24320;56.980;24.336;2023-08-21T06:16:42;21.17;;;11.05;;
28653;SDS011;24320;56.980;24.336;2023-08-21T06:19:11;18.75;;;11.15;;
28653;SDS011;24320;56.980;24.336;2023-08-21T06:21:38;21.50;;;10.63;;
28653;SDS011;24320;56.980;24.336;2023-08-21T06:24:05;21.60;;;12.23;;
28653;SDS011;24320;56.980;24.336;2023-08-21T06:26:33;24.45;;;12.35;;
28653;SDS011;24320;56.980;24.336;2023-08-21T06:29:00;21.48;;;12.32;;
28653;SDS011;24320;56.980;24.336;2023-08-21T06:31:27;20.73;;;11.25;;
28653;SDS011;24320;56.980;24.336;2023-08-21T06:33:54;19.75;;;11.25;;
28653;SDS011;24320;56.980;24.336;2023-08-21T06:36:21;22.23;;;11.52;;
28653;SDS011;24320;56.980;24.336;2023-08-21T06:38:48;20.63;;;11.35;;
28653;SDS011;24320;56.980;24.336;2023-08-21T06:41:15;20.60;;;10.90;;
28653;SDS011;24320;56.980;24.336;2023-08-21T06:43:42;17.88;;;10.60;;
28653;SDS011;24320;56.980;24.336;2023-08-21T06:46:11;20.27;;;10.77;;
28653;SDS011;24320;56.980;24.336;2023-08-21T06:48:39;16.70;;;10.45;;
28653;SDS011;24320;56.980;24.336;2023-08-21T06:51:10;14.25;;;8.73;;
28653;SDS011;24320;56.980;24.336;2023-08-21T06:53:39;15.35;;;8.75;;
28653;SDS011;24320;56.980;24.336;2023-08-21T06:56:07;13.40;;;8.38;;
28653;SDS011;24320;56.980;24.336;2023-08-21T06:58:34;12.75;;;8.93;;
28653;SDS011;24320;56.980;24.336;2023-08-21T07:01:01;14.20;;;8.38;;
28653;SDS011;24320;56.980;24.336;2023-08-21T07:03:28;13.43;;;7.43;;
28653;SDS011;24320;56.980;24.336;2023-08-21T07:08:23;12.48;;;8.20;;
28653;SDS011;24320;56.980;24.336;2023-08-21T07:10:52;12.38;;;8.05;;
28653;SDS011;24320;56.980;24.336;2023-08-21T07:13:20;14.10;;;8.73;;
28653;SDS011;24320;56.980;24.336;2023-08-21T07:15:47;13.60;;;9.13;;
28653;SDS011;24320;56.980;24.336;2023-08-21T07:18:14;15.10;;;9.55;;
28653;SDS011;24320;56.980;24.336;2023-08-21T07:20:41;13.48;;;9.60;;
28653;SDS011;24320;56.980;24.336;2023-08-21T07:23:08;13.23;;;8.95;;
28653;SDS011;24320;56.980;24.336;2023-08-21T07:25:35;12.95;;;8.40;;
28653;SDS011;24320;56.980;24.336;2023-08-21T07:28:03;12.80;;;8.35;;
28653;SDS011;24320;56.980;24.336;2023-08-21T07:30:30;12.43;;;8.60;;
28653;SDS011;24320;56.980;24.336;2023-08-21T07:33:01;13.75;;;9.07;;
28653;SDS011;24320;56.980;24.336;2023-08-21T07:35:29;17.45;;;9.95;;
28653;SDS011;24320;56.980;24.336;2023-08-21T07:37:56;14.70;;;10.07;;
28653;SDS011;24320;56.980;24.336;2023-08-21T07:40:26;15.50;;;9.40;;
28653;SDS011;24320;56.980;24.336;2023-08-21T07:42:53;14.38;;;9.40;;
28653;SDS011;24320;56.980;24.336;2023-08-21T07:45:20;12.55;;;8.68;;
28653;SDS011;24320;56.980;24.336;2023-08-21T07:47:47;11.65;;;8.18;;
28653;SDS011;24320;56.980;24.336;2023-08-21T07:50:30;11.38;;;8.30;;
28653;SDS011;24320;56.980;24.336;2023-08-21T07:52:57;11.82;;;8.52;;
28653;SDS011;24320;56.980;24.336;2023-08-21T07:55:24;11.10;;;8.27;;
28653;SDS011;24320;56.980;24.336;2023-08-21T07:57:51;9.98;;;7.57;;
28653;SDS011;24320;56.980;24.336;2023-08-21T08:00:18;12.23;;;7.93;;
28653;SDS011;24320;56.980;24.336;2023-08-21T08:02:46;11.05;;;7.50;;
28653;SDS011;24320;56.980;24.336;2023-08-21T08:05:13;11.95;;;6.70;;
28653;SDS011;24320;56.980;24.336;2023-08-21T08:07:40;10.57;;;7.10;;
28653;SDS011;24320;56.980;24.336;2023-08-21T08:10:07;17.10;;;11.00;;
28653;SDS011;24320;56.980;24.336;2023-08-21T08:12:34;19.75;;;12.63;;
28653;SDS011;24320;56.980;24.336;2023-08-21T08:15:02;12.55;;;8.07;;
28653;SDS011;24320;56.980;24.336;2023-08-21T08:17:29;17.88;;;11.02;;
28653;SDS011;24320;56.980;24.336;2023-08-21T08:19:56;16.10;;;8.50;;
28653;SDS011;24320;56.980;24.336;2023-08-21T08:22:23;12.38;;;8.35;;
28653;SDS011;24320;56.980;24.336;2023-08-21T08:24:50;14.85;;;9.45;;
28653;SDS011;24320;56.980;24.336;2023-08-21T08:27:17;30.45;;;16.58;;
28653;SDS011;24320;56.980;24.336;2023-08-21T08:29:44;16.95;;;9.40;;
28653;SDS011;24320;56.980;24.336;2023-08-21T08:32:11;10.20;;;6.88;;
28653;SDS011;24320;56.980;24.336;2023-08-21T08:34:38;17.10;;;10.50;;
28653;SDS011;24320;56.980;24.336;2023-08-21T08:37:05;14.90;;;7.00;;
28653;SDS011;24320;56.980;24.336;2023-08-21T08:39:32;10.50;;;6.28;;
28653;SDS011;24320;56.980;24.336;2023-08-21T08:42:02;8.77;;;6.15;;
28653;SDS011;24320;56.980;24.336;2023-08-21T08:44:32;10.30;;;6.85;;
28653;SDS011;24320;56.980;24.336;2023-08-21T08:47:01;11.65;;;7.20;;
28653;SDS011;24320;56.980;24.336;2023-08-21T08:49:30;15.52;;;9.70;;
28653;SDS011;24320;56.980;24.336;2023-08-21T08:51:58;22.88;;;13.60;;
28653;SDS011;24320;56.980;24.336;2023-08-21T08:54:26;21.35;;;12.27;;
28653;SDS011;24320;56.980;24.336;2023-08-21T08:56:53;13.38;;;8.13;;
28653;SDS011;24320;56.980;24.336;2023-08-21T08:59:21;12.23;;;8.75;;
28653;SDS011;24320;56.980;24.336;2023-08-21T09:01:48;10.65;;;5.97;;
28653;SDS011;24320;56.980;24.336;2023-08-21T09:04:15;9.68;;;6.18;;
28653;SDS011;24320;56.980;24.336;2023-08-21T09:06:43;8.90;;;6.85;;
28653;SDS011;24320;56.980;24.336;2023-08-21T09:09:10;10.65;;;6.25;;
28653;SDS011;24320;56.980;24.336;2023-08-21T09:11:42;8.57;;;6.18;;
28653;SDS011;24320;56.980;24.336;2023-08-21T09:14:11;9.15;;;5.85;;
28653;SDS011;24320;56.980;24.336;2023-08-21T09:16:56;12.05;;;6.53;;
28653;SDS011;24320;56.980;24.336;2023-08-21T09:19:27;9.65;;;5.63;;
28653;SDS011;24320;56.980;24.336;2023-08-21T09:21:54;9.05;;;5.78;;
28653;SDS011;24320;56.980;24.336;2023-08-21T09:24:21;10.32;;;6.07;;
28653;SDS011;24320;56.980;24.336;2023-08-21T09:26:49;7.57;;;5.25;;
28653;SDS011;24320;56.980;24.336;2023-08-21T09:29:17;8.68;;;5.70;;
28653;SDS011;24320;56.980;24.336;2023-08-21T09:31:44;10.05;;;5.18;;
28653;SDS011;24320;56.980;24.336;2023-08-21T09:34:13;9.07;;;5.13;;
28653;SDS011;24320;56.980;24.336;2023-08-21T09:36:40;10.57;;;5.75;;
28653;SDS011;24320;56.980;24.336;2023-08-21T09:39:14;6.03;;;4.93;;
28653;SDS011;24320;56.980;24.336;2023-08-21T09:41:46;7.50;;;5.78;;
28653;SDS011;24320;56.980;24.336;2023-08-21T09:44:22;9.15;;;5.15;;
28653;SDS011;24320;56.980;24.336;2023-08-21T09:46:49;8.98;;;5.00;;
28653;SDS011;24320;56.980;24.336;2023-08-21T09:49:17;7.03;;;4.85;;
28653;SDS011;24320;56.980;24.336;2023-08-21T09:51:45;11.73;;;5.65;;
28653;SDS011;24320;56.980;24.336;2023-08-21T09:54:12;7.13;;;5.22;;
28653;SDS011;24320;56.980;24.336;2023-08-21T09:56:40;7.47;;;5.05;;
28653;SDS011;24320;56.980;24.336;2023-08-21T09:59:07;9.25;;;5.03;;
28653;SDS011;24320;56.980;24.336;2023-08-21T10:01:35;8.10;;;5.28;;
28653;SDS011;24320;56.980;24.336;2023-08-21T10:04:03;8.63;;;5.80;;
28653;SDS011;24320;56.980;24.336;2023-08-21T10:06:32;7.38;;;5.47;;
28653;SDS011;24320;56.980;24.336;2023-08-21T10:08:59;8.43;;;5.13;;
28653;SDS011;24320;56.980;24.336;2023-08-21T10:11:26;8.18;;;5.93;;
28653;SDS011;24320;56.980;24.336;2023-08-21T10:13:54;9.55;;;5.95;;
28653;SDS011;24320;56.980;24.336;2023-08-21T10:16:22;7.75;;;5.85;;
28653;SDS011;24320;56.980;24.336;2023-08-21T10:18:51;8.35;;;5.88;;
28653;SDS011;24320;56.980;24.336;2023-08-21T10:21:19;9.02;;;5.70;;
28653;SDS011;24320;56.980;24.336;2023-08-21T10:23:51;12.15;;;6.10;;
28653;SDS011;24320;56.980;24.336;2023-08-21T10:26:21;8.93;;;5.60;;
28653;SDS011;24320;56.980;24.336;2023-08-21T10:32:01;7.97;;;5.33;;
28653;SDS011;24320;56.980;24.336;2023-08-21T10:34:11;8.05;;;5.97;;
28653;SDS011;24320;56.980;24.336;2023-08-21T10:41:41;8.50;;;6.65;;
28653;SDS011;24320;56.980;24.336;2023-08-21T10:44:33;11.70;;;6.65;;
28653;SDS011;24320;56.980;24.336;2023-08-21T10:49:51;10.43;;;5.78;;
28653;SDS011;24320;56.980;24.336;2023-08-21T10:54:52;9.45;;;7.10;;
28653;SDS011;24320;56.980;24.336;2023-08-21T10:57:21;11.07;;;7.65;;
28653;SDS011;24320;56.980;24.336;2023-08-21T10:59:59;9.27;;;6.82;;
28653;SDS011;24320;56.980;24.336;2023-08-21T11:02:36;9.85;;;6.95;;
28653;SDS011;24320;56.980;24.336;2023-08-21T11:05:05;9.63;;;7.17;;
28653;SDS011;24320;56.980;24.336;2023-08-21T11:07:38;9.05;;;6.90;;
28653;SDS011;24320;56.980;24.336;2023-08-21T11:10:07;10.40;;;7.03;;
28653;SDS011;24320;56.980;24.336;2023-08-21T11:12:38;15.07;;;8.10;;
28653;SDS011;24320;56.980;24.336;2023-08-21T11:15:15;13.55;;;7.63;;
28653;SDS011;24320;56.980;24.336;2023-08-21T11:17:54;12.25;;;8.40;;
28653;SDS011;24320;56.980;24.336;2023-08-21T11:20:27;10.73;;;8.07;;
28653;SDS011;24320;56.980;24.336;2023-08-21T11:23:02;13.52;;;8.40;;
28653;SDS011;24320;56.980;24.336;2023-08-21T11:25:38;9.25;;;7.07;;
28653;SDS011;24320;56.980;24.336;2023-08-21T11:28:06;10.13;;;7.20;;
28653;SDS011;24320;56.980;24.336;2023-08-21T11:30:34;12.70;;;7.32;;
28653;SDS011;24320;56.980;24.336;2023-08-21T11:33:12;10.73;;;7.45;;
28653;SDS011;24320;56.980;24.336;2023-08-21T11:35:40;11.10;;;7.40;;
28653;SDS011;24320;56.980;24.336;2023-08-21T11:38:17;9.45;;;6.45;;
28653;SDS011;24320;56.980;24.336;2023-08-21T11:40:58;9.88;;;6.90;;
28653;SDS011;24320;56.980;24.336;2023-08-21T11:46:06;10.25;;;6.82;;
28653;SDS011;24320;56.980;24.336;2023-08-21T11:48:36;8.70;;;6.63;;
28653;SDS011;24320;56.980;24.336;2023-08-21T11:51:04;12.18;;;7.15;;
28653;SDS011;24320;56.980;24.336;2023-08-21T11:56:00;10.32;;;7.15;;
28653;SDS011;24320;56.980;24.336;2023-08-21T11:58:27;9.63;;;7.35;;
28653;SDS011;24320;56.980;24.336;2023-08-21T12:01:01;9.60;;;6.50;;
28653;SDS011;24320;56.980;24.336;2023-08-21T12:03:35;12.65;;;8.07;;
28653;SDS011;24320;56.980;24.336;2023-08-21T12:06:06;10.10;;;7.10;;
28653;SDS011;24320;56.980;24.336;2023-08-21T12:08:35;9.82;;;7.32;;
28653;SDS011;24320;56.980;24.336;2023-08-21T12:11:02;8.25;;;6.97;;
28653;SDS011;24320;56.980;24.336;2023-08-21T12:13:30;11.57;;;7.13;;
28653;SDS011;24320;56.980;24.336;2023-08-21T12:16:01;9.98;;;7.50;;
28653;SDS011;24320;56.980;24.336;2023-08-21T12:18:28;10.63;;;7.20;;
28653;SDS011;24320;56.980;24.336;2023-08-21T12:20:55;8.48;;;7.00;;
28653;SDS011;24320;56.980;24.336;2023-08-21T12:23:23;9.25;;;5.78;;
28653;SDS011;24320;56.980;24.336;2023-08-21T12:25:51;9.18;;;7.40;;
28653;SDS011;24320;56.980;24.336;2023-08-21T12:28:18;10.15;;;7.10;;
28653;SDS011;24320;56.980;24.336;2023-08-21T12:30:45;8.68;;;6.22;;
28653;SDS011;24320;56.980;24.336;2023-08-21T12:33:13;10.98;;;6.13;;
28653;SDS011;24320;56.980;24.336;2023-08-21T12:35:49;12.25;;;5.95;;
28653;SDS011;24320;56.980;24.336;2023-08-21T12:38:16;6.93;;;5.60;;
28653;SDS011;24320;56.980;24.336;2023-08-21T12:40:44;6.97;;;5.05;;
28653;SDS011;24320;56.980;24.336;2023-08-21T12:43:11;7.07;;;5.53;;
28653;SDS011;24320;56.980;24.336;2023-08-21T12:45:38;10.93;;;5.57;;
28653;SDS011;24320;56.980;24.336;2023-08-21T12:48:05;9.10;;;5.45;;
28653;SDS011;24320;56.980;24.336;2023-08-21T12:50:32;11.30;;;5.63;;
28653;SDS011;24320;56.980;24.336;2023-08-21T12:52:59;6.55;;;5.22;;
28653;SDS011;24320;56.980;24.336;2023-08-21T12:55:28;9.27;;;5.47;;
28653;SDS011;24320;56.980;24.336;2023-08-21T12:57:55;8.35;;;5.90;;
28653;SDS011;24320;56.980;24.336;2023-08-21T13:02:55;8.95;;;5.22;;
28653;SDS011;24320;56.980;24.336;2023-08-21T13:05:22;9.23;;;5.25;;
28653;SDS011;24320;56.980;24.336;2023-08-21T13:07:50;7.50;;;5.13;;
28653;SDS011;24320;56.980;24.336;2023-08-21T13:10:17;9.73;;;5.63;;
28653;SDS011;24320;56.980;24.336;2023-08-21T13:12:44;10.88;;;7.72;;
28653;SDS011;24320;56.980;24.336;2023-08-21T13:15:11;10.05;;;7.22;;
28653;SDS011;24320;56.980;24.336;2023-08-21T13:17:38;12.07;;;8.07;;
28653;SDS011;24320;56.980;24.336;2023-08-21T13:20:05;10.85;;;6.40;;
28653;SDS011;24320;56.980;24.336;2023-08-21T13:22:56;10.07;;;7.93;;
28653;SDS011;24320;56.980;24.336;2023-08-21T13:25:23;12.88;;;7.88;;
28653;SDS011;24320;56.980;24.336;2023-08-21T13:27:53;13.23;;;7.45;;
28653;SDS011;24320;56.980;24.336;2023-08-21T13:30:21;11.82;;;7.35;;
28653;SDS011;24320;56.980;24.336;2023-08-21T13:32:48;11.50;;;6.53;;
28653;SDS011;24320;56.980;24.336;2023-08-21T13:35:15;9.75;;;6.40;;
28653;SDS011;24320;56.980;24.336;2023-08-21T13:37:43;9.50;;;6.38;;
28653;SDS011;24320;56.980;24.336;2023-08-21T13:40:10;8.32;;;6.10;;
28653;SDS011;24320;56.980;24.336;2023-08-21T13:42:40;10.23;;;6.18;;
28653;SDS011;24320;56.980;24.336;2023-08-21T13:45:08;8.82;;;6.32;;
28653;SDS011;24320;56.980;24.336;2023-08-21T13:47:40;9.73;;;5.90;;
28653;SDS011;24320;56.980;24.336;2023-08-21T13:50:09;9.73;;;6.43;;
28653;SDS011;24320;56.980;24.336;2023-08-21T13:52:37;10.05;;;6.55;;
28653;SDS011;24320;56.980;24.336;2023-08-21T13:55:07;8.73;;;6.60;;
28653;SDS011;24320;56.980;24.336;2023-08-21T13:57:39;13.65;;;8.10;;
28653;SDS011;24320;56.980;24.336;2023-08-21T14:00:07;8.98;;;6.38;;
28653;SDS011;24320;56.980;24.336;2023-08-21T14:02:39;9.38;;;6.78;;
28653;SDS011;24320;56.980;24.336;2023-08-21T14:05:08;7.82;;;6.20;;
28653;SDS011;24320;56.980;24.336;2023-08-21T14:07:37;11.43;;;7.70;;
28653;SDS011;24320;56.980;24.336;2023-08-21T14:10:06;11.52;;;7.85;;
28653;SDS011;24320;56.980;24.336;2023-08-21T14:12:34;10.05;;;7.43;;
28653;SDS011;24320;56.980;24.336;2023-08-21T14:15:05;9.93;;;7.25;;
28653;SDS011;24320;56.980;24.336;2023-08-21T14:17:32;10.13;;;7.45;;
28653;SDS011;24320;56.980;24.336;2023-08-21T14:19:59;11.02;;;7.18;;
28653;SDS011;24320;56.980;24.336;2023-08-21T14:22:27;9.93;;;6.97;;
28653;SDS011;24320;56.980;24.336;2023-08-21T14:24:54;9.70;;;7.47;;
28653;SDS011;24320;56.980;24.336;2023-08-21T14:27:21;7.72;;;6.13;;
28653;SDS011;24320;56.980;24.336;2023-08-21T14:29:49;10.40;;;6.75;;
28653;SDS011;24320;56.980;24.336;2023-08-21T14:32:16;10.02;;;6.95;;
28653;SDS011;24320;56.980;24.336;2023-08-21T14:34:43;9.60;;;6.32;;
28653;SDS011;24320;56.980;24.336;2023-08-21T14:37:10;9.20;;;6.40;;
28653;SDS011;24320;56.980;24.336;2023-08-21T14:39:41;9.23;;;6.20;;
28653;SDS011;24320;56.980;24.336;2023-08-21T14:42:11;7.80;;;5.82;;
28653;SDS011;24320;56.980;24.336;2023-08-21T14:44:39;7.90;;;5.30;;
28653;SDS011;24320;56.980;24.336;2023-08-21T14:47:06;6.55;;;5.18;;
28653;SDS011;24320;56.980;24.336;2023-08-21T14:49:34;8.43;;;5.55;;
28653;SDS011;24320;56.980;24.336;2023-08-21T14:52:01;9.65;;;5.25;;